createdAt,value
2018-09-19T00:01:26.093Z,99.90
2018-09-19T00:03:54.655Z,99.90
2018-09-19T00:06:23.159Z,99.90
2018-09-19T00:08:52.498Z,99.90
2018-09-19T00:11:22.429Z,99.90
2018-09-19T00:13:50.995Z,99.90
2018-09-19T00:16:19.479Z,99.90
2018-09-19T00:18:47.957Z,99.90
2018-09-19T00:21:16.488Z,99.90
2018-09-19T00:23:44.954Z,99.90
2018-09-19T00:26:13.447Z,99.90
2018-09-19T00:28:41.962Z,99.90
2018-09-19T00:31:10.464Z,99.90
2018-09-19T00:33:39.076Z,99.90
2018-09-19T00:36:07.624Z,99.90
2018-09-19T00:38:36.108Z,99.90
2018-09-19T00:41:04.615Z,99.90
2018-09-19T00:43:33.118Z,99.90
2018-09-19T00:46:01.668Z,99.90
2018-09-19T00:48:30.267Z,99.90
2018-09-19T00:50:58.838Z,99.90
2018-09-19T00:53:27.331Z,99.90
2018-09-19T00:55:55.814Z,99.90
2018-09-19T00:58:24.300Z,99.90
2018-09-19T01:00:52.843Z,99.90
2018-09-19T01:03:21.832Z,99.90
2018-09-19T01:05:50.336Z,99.90
2018-09-19T01:08:18.788Z,99.90
2018-09-19T01:10:47.327Z,99.90
2018-09-19T01:13:15.818Z,99.90
2018-09-19T01:15:44.344Z,99.90
2018-09-19T01:18:12.847Z,99.90
2018-09-19T01:20:41.403Z,99.90
2018-09-19T01:23:09.890Z,99.90
2018-09-19T01:25:38.403Z,99.90
2018-09-19T01:28:06.935Z,99.90
2018-09-19T01:30:35.454Z,99.90
2018-09-19T01:33:03.966Z,99.90
2018-09-19T01:35:32.506Z,99.90
2018-09-19T01:38:01.071Z,99.90
2018-09-19T01:40:30.190Z,99.90
2018-09-19T01:42:58.782Z,99.90
2018-09-19T01:45:27.460Z,99.90
2018-09-19T01:47:55.997Z,99.90
2018-09-19T01:50:24.590Z,99.90
2018-09-19T01:52:53.139Z,99.90
2018-09-19T01:55:21.620Z,99.90
2018-09-19T01:57:50.178Z,99.90
2018-09-19T02:00:18.759Z,99.90
2018-09-19T02:02:47.289Z,99.90
2018-09-19T02:05:16.196Z,99.90
2018-09-19T02:07:44.810Z,99.90
2018-09-19T02:10:13.379Z,99.90
2018-09-19T02:12:41.886Z,99.90
2018-09-19T02:15:10.471Z,99.90
2018-09-19T02:17:38.942Z,99.90
2018-09-19T02:20:07.484Z,99.90
2018-09-19T02:22:36.019Z,99.90
2018-09-19T02:25:04.579Z,99.90
2018-09-19T02:27:33.142Z,99.90
2018-09-19T02:30:01.626Z,99.90
2018-09-19T02:32:30.250Z,99.90
2018-09-19T02:34:58.799Z,99.90
2018-09-19T02:37:27.291Z,99.90
2018-09-19T02:39:55.779Z,99.90
2018-09-19T02:42:24.343Z,99.90
2018-09-19T02:44:52.832Z,99.90
2018-09-19T02:47:21.316Z,99.90
2018-09-19T02:49:49.833Z,99.90
2018-09-19T02:52:18.664Z,99.90
2018-09-19T02:54:47.242Z,99.90
2018-09-19T02:57:15.939Z,99.90
2018-09-19T02:59:44.570Z,99.90
2018-09-19T03:02:13.179Z,99.90
2018-09-19T03:07:10.328Z,99.90
2018-09-19T03:09:38.860Z,99.90
2018-09-19T03:12:07.442Z,99.90
2018-09-19T03:14:35.996Z,99.90
2018-09-19T03:17:04.551Z,99.90
2018-09-19T03:19:33.051Z,99.90
2018-09-19T03:22:01.730Z,99.90
2018-09-19T03:24:31.452Z,99.90
2018-09-19T03:26:59.960Z,99.90
2018-09-19T03:29:28.495Z,99.90
2018-09-19T03:31:57.030Z,99.90
2018-09-19T03:34:25.552Z,99.90
2018-09-19T03:36:54.101Z,99.90
2018-09-19T03:39:22.619Z,99.90
2018-09-19T03:41:51.104Z,99.90
2018-09-19T03:44:19.624Z,99.90
2018-09-19T03:46:48.283Z,99.90
2018-09-19T03:49:16.897Z,99.90
2018-09-19T03:51:45.650Z,99.90
2018-09-19T03:54:14.199Z,99.90
2018-09-19T03:59:33.352Z,99.90
2018-09-19T04:02:01.873Z,99.90
2018-09-19T04:04:30.394Z,99.90
2018-09-19T04:06:58.950Z,99.90
2018-09-19T04:09:27.494Z,99.90
2018-09-19T04:11:55.959Z,99.90
2018-09-19T04:14:24.475Z,99.90
2018-09-19T04:16:52.996Z,99.90
2018-09-19T04:19:21.484Z,99.90
2018-09-19T04:21:51.770Z,99.90
2018-09-19T04:24:20.261Z,99.90
2018-09-19T04:26:48.766Z,99.90
2018-09-19T04:29:17.578Z,99.90
2018-09-19T04:31:46.135Z,99.90
2018-09-19T04:34:15.767Z,99.90
2018-09-19T04:36:44.674Z,99.90
2018-09-19T04:39:13.868Z,99.90
2018-09-19T04:41:42.488Z,99.90
2018-09-19T04:44:11.277Z,99.90
2018-09-19T04:46:40.656Z,99.90
2018-09-19T04:49:09.799Z,99.90
2018-09-19T04:51:39.583Z,99.90
2018-09-19T04:54:08.608Z,99.90
2018-09-19T04:56:37.760Z,99.90
2018-09-19T04:59:06.565Z,99.90
2018-09-19T05:01:35.262Z,99.90
2018-09-19T05:04:04.066Z,99.90
2018-09-19T05:06:32.804Z,99.90
2018-09-19T05:09:01.532Z,99.90
2018-09-19T05:11:30.289Z,99.90
2018-09-19T05:14:00.287Z,99.90
2018-09-19T05:16:28.896Z,99.90
2018-09-19T05:18:57.569Z,99.90
2018-09-19T05:21:26.217Z,99.90
2018-09-19T05:23:54.927Z,99.90
2018-09-19T05:26:23.504Z,99.90
2018-09-19T05:28:52.077Z,99.90
2018-09-19T05:31:20.608Z,99.90
2018-09-19T05:33:49.287Z,99.90
2018-09-19T05:36:17.983Z,99.90
2018-09-19T05:38:46.663Z,99.90
2018-09-19T05:41:15.209Z,99.90
2018-09-19T05:43:43.781Z,99.90
2018-09-19T05:46:12.573Z,99.90
2018-09-19T05:48:41.162Z,99.90
2018-09-19T05:51:09.869Z,99.90
2018-09-19T05:53:38.576Z,99.90
2018-09-19T05:56:07.213Z,99.90
2018-09-19T05:58:35.929Z,99.90
2018-09-19T06:01:05.241Z,99.90
2018-09-19T06:03:33.944Z,99.90
2018-09-19T06:06:02.689Z,99.90
2018-09-19T06:08:31.371Z,99.90
2018-09-19T06:11:00.255Z,99.90
2018-09-19T06:13:29.295Z,99.90
2018-09-19T06:15:58.110Z,99.90
2018-09-19T06:18:26.842Z,99.90
2018-09-19T06:20:55.522Z,99.90
2018-09-19T06:23:24.157Z,99.90
2018-09-19T06:25:52.955Z,99.90
2018-09-19T06:28:22.074Z,99.90
2018-09-19T06:30:50.763Z,99.90
2018-09-19T06:33:19.475Z,99.90
2018-09-19T06:35:48.405Z,99.90
2018-09-19T06:38:17.334Z,99.90
2018-09-19T06:40:46.319Z,99.90
2018-09-19T06:43:15.145Z,99.90
2018-09-19T06:45:44.020Z,99.90
2018-09-19T06:48:12.978Z,99.90
2018-09-19T06:50:41.895Z,99.90
2018-09-19T06:53:10.735Z,99.90
2018-09-19T06:55:39.773Z,99.90
2018-09-19T06:58:08.511Z,99.90
2018-09-19T07:00:37.585Z,99.90
2018-09-19T07:03:06.163Z,99.90
2018-09-19T07:05:35.160Z,99.90
2018-09-19T07:08:04.094Z,99.90
2018-09-19T07:10:33.212Z,99.90
2018-09-19T07:13:02.035Z,99.90
2018-09-19T07:15:30.854Z,99.90
2018-09-19T07:17:59.792Z,99.90
2018-09-19T07:20:28.888Z,99.90
2018-09-19T07:22:57.644Z,99.90
2018-09-19T07:25:26.593Z,99.90
2018-09-19T07:27:55.469Z,99.90
2018-09-19T07:30:24.480Z,99.90
2018-09-19T07:45:52.666Z,99.90
2018-09-19T07:48:21.448Z,99.90
2018-09-19T07:50:50.312Z,99.90
2018-09-19T07:53:19.049Z,99.90
2018-09-19T07:55:47.952Z,99.90
2018-09-19T07:58:16.939Z,99.90
2018-09-19T08:00:46.018Z,99.40
2018-09-19T08:03:17.201Z,99.90
2018-09-19T08:05:45.897Z,97.40
2018-09-19T08:08:14.902Z,97.90
2018-09-19T08:10:43.487Z,98.90
2018-09-19T08:13:12.355Z,97.90
2018-09-19T08:15:41.160Z,94.60
2018-09-19T08:18:09.988Z,92.60
2018-09-19T08:20:38.843Z,92.80
2018-09-19T08:23:08.675Z,93.60
2018-09-19T08:25:37.485Z,93.00
2018-09-19T08:28:06.645Z,92.40
2018-09-19T08:30:35.731Z,90.40
2018-09-19T08:33:04.444Z,87.80
2018-09-19T08:35:33.579Z,90.50
2018-09-19T08:38:02.613Z,88.40
2018-09-19T08:40:31.400Z,85.10
2018-09-19T08:43:00.216Z,82.90
2018-09-19T08:45:29.183Z,85.10
2018-09-19T08:47:58.349Z,83.50
2018-09-19T08:50:27.270Z,83.00
2018-09-19T08:52:56.161Z,82.10
2018-09-19T08:55:25.219Z,83.60
2018-09-19T08:57:54.147Z,80.30
2018-09-19T09:00:22.961Z,75.90
2018-09-19T09:02:52.218Z,76.60
2018-09-19T09:05:21.588Z,74.10
2018-09-19T09:07:50.671Z,71.90
2018-09-19T09:10:19.751Z,73.10
2018-09-19T09:12:48.867Z,69.30
2018-09-19T09:15:19.148Z,66.10
2018-09-19T09:17:48.225Z,69.00
2018-09-19T09:20:17.340Z,69.30
2018-09-19T09:22:46.621Z,63.80
2018-09-19T09:25:15.579Z,68.90
2018-09-19T09:27:44.558Z,64.40
2018-09-19T09:30:13.718Z,68.40
2018-09-19T09:32:42.819Z,58.80
2018-09-19T09:35:11.996Z,59.70
2018-09-19T09:37:41.083Z,59.70
2018-09-19T09:40:10.408Z,58.80
2018-09-19T09:42:39.779Z,57.20
2018-09-19T09:45:08.782Z,59.00
2018-09-19T09:47:37.761Z,57.60
2018-09-19T09:50:09.055Z,57.50
2018-09-19T09:52:38.309Z,54.20
2018-09-19T09:55:07.822Z,56.20
2018-09-19T09:57:37.012Z,58.10
2018-09-19T10:00:06.591Z,56.70
2018-09-19T10:02:36.210Z,58.10
2018-09-19T10:05:05.688Z,56.40
2018-09-19T10:07:34.901Z,54.10
2018-09-19T10:10:04.663Z,52.50
2018-09-19T10:12:34.075Z,51.80
2018-09-19T10:15:03.415Z,53.60
2018-09-19T10:17:36.136Z,55.40
2018-09-19T10:20:05.494Z,53.70
2018-09-19T10:22:34.963Z,52.40
2018-09-19T10:25:04.332Z,53.10
2018-09-19T10:27:33.362Z,54.70
2018-09-19T10:30:02.287Z,53.10
2018-09-19T10:32:40.210Z,51.50
2018-09-19T10:35:10.389Z,52.10
2018-09-19T10:37:39.840Z,53.40
2018-09-19T10:40:09.093Z,54.00
2018-09-19T10:42:37.854Z,52.50
2018-09-19T10:45:07.779Z,52.90
2018-09-19T10:50:16.670Z,51.60
2018-09-19T10:52:46.058Z,52.10
2018-09-19T10:55:15.339Z,50.50
2018-09-19T10:57:44.461Z,50.50
2018-09-19T11:00:13.661Z,52.30
2018-09-19T11:02:43.047Z,50.20
2018-09-19T11:05:16.357Z,53.30
2018-09-19T11:07:50.375Z,50.60
2018-09-19T11:10:19.874Z,47.60
2018-09-19T11:12:49.813Z,49.40
2018-09-19T11:15:19.016Z,45.80
2018-09-19T11:17:48.508Z,47.60
2018-09-19T11:20:32.425Z,51.10
2018-09-19T11:23:01.442Z,53.20
2018-09-19T11:25:30.786Z,48.20
2018-09-19T11:27:59.858Z,48.30
2018-09-19T11:30:29.778Z,51.30
2018-09-19T11:32:59.134Z,49.00
2018-09-19T11:35:28.600Z,52.10
2018-09-19T11:37:58.013Z,51.70
2018-09-19T11:40:27.253Z,49.00
2018-09-19T11:42:56.566Z,48.90
2018-09-19T11:45:26.066Z,51.40
2018-09-19T11:47:56.483Z,51.40
2018-09-19T11:50:25.902Z,49.80
2018-09-19T11:52:54.983Z,49.00
2018-09-19T11:55:24.577Z,48.80
2018-09-19T11:57:54.053Z,49.80
2018-09-19T12:00:23.332Z,50.50
2018-09-19T12:02:52.440Z,46.90
2018-09-19T12:05:21.650Z,47.30
2018-09-19T12:07:51.509Z,47.40
2018-09-19T12:10:20.526Z,49.90
2018-09-19T12:12:49.707Z,49.80
2018-09-19T12:15:19.126Z,49.40
2018-09-19T12:17:48.238Z,49.60
2018-09-19T12:20:17.579Z,49.20
2018-09-19T12:22:47.136Z,47.60
2018-09-19T12:25:16.594Z,48.90
2018-09-19T12:27:45.850Z,49.20
2018-09-19T12:30:15.423Z,48.10
2018-09-19T12:32:44.827Z,49.30
2018-09-19T12:35:14.528Z,47.10
2018-09-19T12:37:43.643Z,49.20
2018-09-19T12:40:12.901Z,48.70
2018-09-19T12:42:43.221Z,48.90
2018-09-19T12:45:12.596Z,48.80
2018-09-19T12:47:41.983Z,47.80
2018-09-19T12:50:10.949Z,43.90
2018-09-19T12:52:42.212Z,44.80
2018-09-19T12:55:11.571Z,47.60
2018-09-19T12:57:40.835Z,47.20
2018-09-19T13:00:10.000Z,47.70
2018-09-19T13:02:44.573Z,48.90
2018-09-19T13:07:53.969Z,45.20
2018-09-19T13:10:40.037Z,47.40
2018-09-19T13:13:08.992Z,48.10
2018-09-19T13:15:37.732Z,43.90
2018-09-19T13:18:09.028Z,43.30
2018-09-19T13:20:40.466Z,46.50
2018-09-19T13:23:09.208Z,47.10
2018-09-19T13:25:37.982Z,46.20
2018-09-19T13:28:10.684Z,47.30
2018-09-19T13:30:40.525Z,45.00
2018-09-19T13:33:09.520Z,45.70
2018-09-19T13:35:38.494Z,45.80
2018-09-19T13:38:07.459Z,46.10
2018-09-19T13:40:36.655Z,44.80
2018-09-19T13:43:05.461Z,43.30
2018-09-19T13:45:34.216Z,45.30
2018-09-19T13:48:03.144Z,43.90
2018-09-19T13:50:44.046Z,43.30
2018-09-19T13:55:56.251Z,42.60
2018-09-19T13:58:25.862Z,44.70
2018-09-19T14:00:54.836Z,44.40
2018-09-19T14:03:23.952Z,42.40
2018-09-19T14:05:52.944Z,43.80
2018-09-19T14:08:21.588Z,43.60
2018-09-19T14:10:50.410Z,43.20
2018-09-19T14:13:19.409Z,45.10
2018-09-19T14:15:48.108Z,43.10
2018-09-19T14:18:17.045Z,45.50
2018-09-19T14:20:46.517Z,45.20
2018-09-19T14:23:15.462Z,43.70
2018-09-19T14:25:44.401Z,43.10
2018-09-19T14:28:14.628Z,42.50
2018-09-19T14:30:43.803Z,43.10
2018-09-19T14:33:13.751Z,41.50
2018-09-19T14:35:42.812Z,43.80
2018-09-19T14:38:12.345Z,46.30
2018-09-19T14:40:41.449Z,43.80
2018-09-19T14:43:10.342Z,45.30
2018-09-19T14:45:39.144Z,43.90
2018-09-19T14:48:08.104Z,44.80
2018-09-19T14:50:37.121Z,46.60
2018-09-19T14:53:06.319Z,45.60
2018-09-19T14:55:41.245Z,45.20
2018-09-19T14:58:10.690Z,46.20
2018-09-19T15:00:41.094Z,47.10
2018-09-19T15:03:11.789Z,46.10
2018-09-19T15:05:41.865Z,47.40
2018-09-19T15:08:35.341Z,46.60
2018-09-19T15:11:22.081Z,47.30
2018-09-19T15:13:51.086Z,48.70
2018-09-19T15:20:46.417Z,47.90
2018-09-19T15:27:16.992Z,48.90
2018-09-19T15:29:46.735Z,49.00
2018-09-19T15:32:16.179Z,49.00
2018-09-19T15:34:45.547Z,49.10
2018-09-19T15:37:14.786Z,50.30
2018-09-19T15:42:52.913Z,50.70
2018-09-19T15:48:39.456Z,50.80
2018-09-19T15:51:21.639Z,51.10
2018-09-19T15:53:57.596Z,52.80
2018-09-19T15:56:27.001Z,52.60
2018-09-19T15:58:57.938Z,51.60
2018-09-19T16:01:27.848Z,52.70
2018-09-19T16:09:57.639Z,54.30
2018-09-19T16:12:26.699Z,54.20
2018-09-19T16:14:56.751Z,55.50
2018-09-19T16:17:29.755Z,56.50
2018-09-19T16:23:04.860Z,58.40
2018-09-19T16:25:34.101Z,58.60
2018-09-19T16:28:03.077Z,60.20
2018-09-19T16:30:32.104Z,61.00
2018-09-19T16:33:00.934Z,62.50
2018-09-19T16:35:29.739Z,62.70
2018-09-19T16:37:58.685Z,63.30
2018-09-19T16:40:27.707Z,65.00
2018-09-19T16:42:56.700Z,65.80
2018-09-19T16:45:25.802Z,66.40
2018-09-19T16:47:54.788Z,68.00
2018-09-19T16:50:23.960Z,70.00
2018-09-19T16:52:53.188Z,71.30
2018-09-19T16:55:21.939Z,72.50
2018-09-19T16:57:51.273Z,71.90
2018-09-19T17:00:20.640Z,73.10
2018-09-19T17:02:49.758Z,74.20
2018-09-19T17:05:18.822Z,75.80
2018-09-19T17:07:48.065Z,75.30
2018-09-19T17:10:17.251Z,76.30
2018-09-19T17:12:46.310Z,77.50
2018-09-19T17:15:15.744Z,78.10
2018-09-19T17:17:44.957Z,77.50
2018-09-19T17:20:14.601Z,80.00
2018-09-19T17:22:43.647Z,80.70
2018-09-19T17:25:12.557Z,81.00
2018-09-19T17:27:41.384Z,83.50
2018-09-19T17:30:10.945Z,85.40
2018-09-19T17:35:19.772Z,85.30
2018-09-19T17:37:48.629Z,86.30
2018-09-19T17:40:17.230Z,88.40
2018-09-19T17:42:46.865Z,89.40
2018-09-19T17:45:15.442Z,89.80
2018-09-19T17:47:43.965Z,91.30
2018-09-19T17:50:12.561Z,92.10
2018-09-19T17:52:41.394Z,92.90
2018-09-19T17:55:09.999Z,94.00
2018-09-19T17:57:38.657Z,95.50
2018-09-19T18:00:08.829Z,96.40
2018-09-19T18:02:37.441Z,96.20
2018-09-19T18:05:07.083Z,97.30
2018-09-19T18:07:35.743Z,99.10
2018-09-19T18:10:04.917Z,99.90
2018-09-19T18:12:37.558Z,99.90
2018-09-19T18:15:06.414Z,99.90
2018-09-19T18:17:35.268Z,99.90
2018-09-19T18:20:03.876Z,99.90
2018-09-19T18:22:32.428Z,99.90
2018-09-19T18:25:01.049Z,99.90
2018-09-19T18:27:29.686Z,99.90
2018-09-19T18:29:58.974Z,99.90
2018-09-19T18:32:27.729Z,99.90
2018-09-19T18:34:56.435Z,99.90
2018-09-19T18:37:25.256Z,99.90
2018-09-19T18:39:53.681Z,99.90
2018-09-19T18:42:23.334Z,99.90
2018-09-19T18:44:52.004Z,99.90
2018-09-19T18:47:20.527Z,99.90
2018-09-19T18:49:49.127Z,99.90
2018-09-19T18:52:17.646Z,99.90
2018-09-19T18:54:46.182Z,99.90
2018-09-19T18:57:14.746Z,99.90
2018-09-19T18:59:43.277Z,99.90
2018-09-19T19:02:12.637Z,99.90
2018-09-19T19:04:41.407Z,99.90
2018-09-19T19:07:10.091Z,99.90
2018-09-19T19:09:39.132Z,99.90
2018-09-19T19:12:08.128Z,99.90
2018-09-19T19:14:36.826Z,99.90
2018-09-19T19:17:10.529Z,99.90
2018-09-19T19:19:39.540Z,99.90
2018-09-19T19:22:08.400Z,99.90
2018-09-19T19:24:38.040Z,99.90
2018-09-19T19:27:06.663Z,99.90
2018-09-19T19:29:35.129Z,99.90
2018-09-19T19:32:03.760Z,99.90
2018-09-19T19:34:33.234Z,99.90
2018-09-19T19:37:01.715Z,99.90
2018-09-19T19:39:30.313Z,99.90
2018-09-19T19:41:58.822Z,99.90
2018-09-19T19:44:27.504Z,99.90
2018-09-19T19:46:56.089Z,99.90
2018-09-19T19:49:24.853Z,99.90
2018-09-19T19:51:53.374Z,99.90
2018-09-19T19:54:22.936Z,99.90
2018-09-19T19:56:51.434Z,99.90
2018-09-19T19:59:20.456Z,99.90
2018-09-19T20:01:49.062Z,99.90
2018-09-19T20:04:17.684Z,99.90
2018-09-19T20:06:46.286Z,99.90
2018-09-19T20:09:15.817Z,99.90
2018-09-19T20:11:44.542Z,99.90
2018-09-19T20:14:13.275Z,99.90
2018-09-19T20:16:43.140Z,99.90
2018-09-19T20:19:12.493Z,99.90
2018-09-19T20:21:42.491Z,99.90
2018-09-19T20:24:11.125Z,99.90
2018-09-19T20:26:39.992Z,99.90
2018-09-19T20:29:08.945Z,99.90
2018-09-19T20:31:37.441Z,99.90
2018-09-19T20:34:11.611Z,99.90
2018-09-19T20:36:40.301Z,99.90
2018-09-19T20:39:10.082Z,99.90
2018-09-19T20:41:47.256Z,99.90
2018-09-19T20:44:18.068Z,99.90
2018-09-19T20:46:52.579Z,99.90
2018-09-19T20:49:21.351Z,99.90
2018-09-19T20:51:50.407Z,99.90
2018-09-19T20:54:19.232Z,99.90
2018-09-19T20:56:48.702Z,99.90
2018-09-19T20:59:18.030Z,99.90
2018-09-19T21:01:46.612Z,99.90
2018-09-19T21:04:16.666Z,99.90
2018-09-19T21:06:48.450Z,99.90
2018-09-19T21:09:17.251Z,99.90
2018-09-19T21:11:45.880Z,99.90
2018-09-19T21:14:14.698Z,99.90
2018-09-19T21:16:43.448Z,99.90
2018-09-19T21:19:12.237Z,99.90
2018-09-19T21:21:41.873Z,99.90
2018-09-19T21:24:10.512Z,99.90
2018-09-19T21:26:39.262Z,99.90
2018-09-19T21:29:08.105Z,99.90
2018-09-19T21:31:37.961Z,99.90
2018-09-19T21:34:06.719Z,99.90
2018-09-19T21:36:36.311Z,99.90
2018-09-19T21:39:08.085Z,99.90
2018-09-19T21:41:36.863Z,99.90
2018-09-19T21:44:05.729Z,99.90
2018-09-19T21:46:34.435Z,99.90
2018-09-19T21:49:03.701Z,99.90
2018-09-19T21:51:32.616Z,99.90
2018-09-19T21:54:05.677Z,99.90
2018-09-19T21:56:34.442Z,99.90
2018-09-19T21:59:03.794Z,99.90
2018-09-19T22:01:37.963Z,99.90
2018-09-19T22:04:07.148Z,99.90
2018-09-19T22:06:35.846Z,99.90
2018-09-19T22:09:07.194Z,99.90
2018-09-19T22:11:35.866Z,99.90
2018-09-19T22:14:05.239Z,99.90
2018-09-19T22:16:34.171Z,99.90
2018-09-19T22:19:02.877Z,99.90
2018-09-19T22:21:31.688Z,99.90
2018-09-19T22:24:00.637Z,99.90
2018-09-19T22:26:29.664Z,99.90
2018-09-19T22:29:03.139Z,99.90
2018-09-19T22:31:40.900Z,99.90
2018-09-19T22:34:09.959Z,99.90
2018-09-19T22:36:38.686Z,99.90
2018-09-19T22:39:08.851Z,99.90
2018-09-19T22:41:37.750Z,99.90
2018-09-19T22:44:06.735Z,99.90
2018-09-19T22:46:36.138Z,99.90
2018-09-19T22:49:04.645Z,99.90
2018-09-19T22:51:33.734Z,99.90
2018-09-19T22:54:02.393Z,99.90
2018-09-19T22:56:31.124Z,99.90
2018-09-19T22:58:59.910Z,99.90
2018-09-19T23:01:28.522Z,99.90
2018-09-19T23:03:57.082Z,99.90
2018-09-19T23:06:25.877Z,99.90
2018-09-19T23:08:54.494Z,99.90
2018-09-19T23:11:23.398Z,99.90
2018-09-19T23:13:52.370Z,99.90
2018-09-19T23:16:21.158Z,99.90
2018-09-19T23:18:49.965Z,99.90
2018-09-19T23:21:18.999Z,99.90
2018-09-19T23:23:48.304Z,99.90
2018-09-19T23:26:16.920Z,99.90
2018-09-19T23:28:46.469Z,99.90
2018-09-19T23:31:15.223Z,99.90
2018-09-19T23:33:43.825Z,99.90
2018-09-19T23:36:12.453Z,99.90
2018-09-19T23:38:41.052Z,99.90
2018-09-19T23:41:09.741Z,99.90
2018-09-19T23:43:38.542Z,99.90
2018-09-19T23:46:07.300Z,99.90
2018-09-19T23:48:35.885Z,99.90
2018-09-19T23:51:04.506Z,99.90
2018-09-19T23:53:33.129Z,99.90
2018-09-19T23:56:02.003Z,99.90
2018-09-19T23:58:30.726Z,99.90
